createdAt,value
2023-05-23T00:01:26.977Z,93.40
2023-05-23T00:03:59.253Z,93.70
2023-05-23T00:06:29.769Z,93.60
2023-05-23T00:09:00.845Z,93.80
2023-05-23T00:11:32.882Z,93.50
2023-05-23T00:14:04.416Z,93.70
2023-05-23T00:16:34.996Z,93.80
2023-05-23T00:19:07.326Z,93.20
2023-05-23T00:21:37.647Z,92.70
2023-05-23T00:24:08.240Z,92.80
2023-05-23T00:26:38.921Z,93.20
2023-05-23T00:29:09.254Z,93.00
2023-05-23T00:31:41.705Z,93.00
2023-05-23T00:34:12.126Z,92.50
2023-05-23T00:36:43.889Z,92.00
2023-05-23T00:39:21.744Z,92.20
2023-05-23T00:41:53.934Z,93.10
2023-05-23T00:44:24.844Z,92.60
2023-05-23T00:46:59.594Z,92.30
2023-05-23T00:49:31.341Z,92.40
2023-05-23T00:52:02.593Z,92.70
2023-05-23T00:54:34.887Z,92.90
2023-05-23T00:57:05.996Z,93.00
2023-05-23T00:59:39.101Z,91.60
2023-05-23T01:02:10.341Z,91.50
2023-05-23T01:04:42.784Z,91.20
2023-05-23T01:07:14.090Z,91.60
2023-05-23T01:09:45.611Z,92.10
2023-05-23T01:12:44.705Z,92.10
2023-05-23T01:15:22.613Z,92.00
2023-05-23T01:17:56.909Z,91.90
2023-05-23T01:20:58.826Z,91.90
2023-05-23T01:23:49.440Z,91.20
2023-05-23T01:26:43.303Z,90.30
2023-05-23T01:29:47.605Z,90.20
2023-05-23T01:32:20.057Z,90.80
2023-05-23T01:34:53.710Z,91.30
2023-05-23T01:37:25.255Z,91.10
2023-05-23T01:39:55.576Z,90.80
2023-05-23T01:42:26.119Z,90.70
2023-05-23T01:44:56.549Z,90.90
2023-05-23T01:47:27.237Z,90.50
2023-05-23T01:49:59.565Z,90.40
2023-05-23T01:52:30.848Z,90.20
2023-05-23T01:55:03.293Z,87.70
2023-05-23T01:57:36.902Z,88.00
2023-05-23T02:00:18.050Z,88.30
2023-05-23T02:02:49.138Z,87.80
2023-05-23T02:05:19.681Z,86.50
2023-05-23T02:07:51.119Z,86.70
2023-05-23T02:10:23.250Z,86.90
2023-05-23T02:12:54.076Z,87.70
2023-05-23T02:15:24.926Z,88.70
2023-05-23T02:17:56.618Z,89.10
2023-05-23T02:20:28.742Z,86.60
2023-05-23T02:22:59.439Z,86.30
2023-05-23T02:25:30.479Z,85.40
2023-05-23T02:28:02.014Z,86.40
2023-05-23T02:30:32.596Z,85.50
2023-05-23T02:33:08.226Z,84.30
2023-05-23T02:35:39.094Z,85.20
2023-05-23T02:38:10.159Z,84.60
2023-05-23T02:40:41.250Z,84.00
2023-05-23T02:43:12.428Z,82.10
2023-05-23T02:45:44.060Z,82.40
2023-05-23T02:48:14.489Z,82.60
2023-05-23T02:50:45.325Z,82.60
2023-05-23T02:53:16.312Z,83.00
2023-05-23T02:55:47.162Z,82.80
2023-05-23T02:58:18.050Z,82.40
2023-05-23T03:00:48.359Z,80.00
2023-05-23T03:03:19.333Z,80.30
2023-05-23T03:05:50.060Z,80.20
2023-05-23T03:08:26.057Z,78.60
2023-05-23T03:10:56.812Z,78.70
2023-05-23T03:13:27.208Z,79.60
2023-05-23T03:15:57.580Z,79.10
2023-05-23T03:18:28.016Z,78.60
2023-05-23T03:20:58.661Z,78.70
2023-05-23T03:23:29.452Z,76.80
2023-05-23T03:26:01.528Z,77.60
2023-05-23T03:28:34.853Z,76.60
2023-05-23T03:31:05.331Z,77.10
2023-05-23T03:33:38.260Z,77.10
2023-05-23T03:36:10.228Z,76.60
2023-05-23T03:38:42.187Z,76.80
2023-05-23T03:41:12.987Z,76.80
2023-05-23T03:43:43.795Z,76.90
2023-05-23T03:46:16.818Z,75.70
2023-05-23T03:48:47.880Z,75.70
2023-05-23T03:51:18.865Z,74.60
2023-05-23T03:53:49.255Z,75.20
2023-05-23T03:56:19.737Z,75.30
2023-05-23T03:58:50.317Z,73.50
2023-05-23T04:01:21.255Z,75.10
2023-05-23T04:03:54.262Z,74.70
2023-05-23T04:06:25.120Z,74.70
2023-05-23T04:08:55.425Z,74.60
2023-05-23T04:11:25.820Z,74.40
2023-05-23T04:13:56.155Z,73.90
2023-05-23T04:16:27.541Z,73.80
2023-05-23T04:19:00.260Z,74.20
2023-05-23T04:21:30.734Z,74.70
2023-05-23T04:24:01.243Z,74.70
2023-05-23T04:26:31.786Z,74.10
2023-05-23T04:29:02.174Z,74.10
2023-05-23T04:31:32.584Z,74.50
2023-05-23T04:34:04.228Z,74.10
2023-05-23T04:36:34.631Z,73.00
2023-05-23T04:39:04.913Z,73.60
2023-05-23T04:41:35.508Z,74.40
2023-05-23T04:44:07.835Z,73.30
2023-05-23T04:46:38.372Z,73.30
2023-05-23T04:49:09.640Z,72.00
2023-05-23T04:51:40.131Z,71.90
2023-05-23T04:54:12.014Z,72.50
2023-05-23T04:56:42.724Z,73.10
2023-05-23T04:59:13.316Z,73.70
2023-05-23T05:01:44.176Z,73.80
2023-05-23T05:04:14.717Z,73.10
2023-05-23T05:06:45.082Z,73.50
2023-05-23T05:09:15.420Z,73.30
2023-05-23T05:11:45.732Z,73.40
2023-05-23T05:14:16.094Z,74.20
2023-05-23T05:16:47.707Z,74.20
2023-05-23T05:19:18.216Z,74.20
2023-05-23T05:21:48.679Z,73.80
2023-05-23T05:24:20.210Z,74.20
2023-05-23T05:26:51.630Z,74.40
2023-05-23T05:29:22.030Z,74.20
2023-05-23T05:31:53.771Z,75.30
2023-05-23T05:34:24.609Z,77.10
2023-05-23T05:36:57.706Z,75.30
2023-05-23T05:39:28.361Z,75.00
2023-05-23T05:42:00.037Z,75.10
2023-05-23T05:44:30.472Z,75.50
2023-05-23T05:47:01.390Z,76.50
2023-05-23T05:49:31.758Z,76.30
2023-05-23T05:52:02.282Z,76.10
2023-05-23T05:54:33.108Z,76.60
2023-05-23T05:57:03.493Z,76.10
2023-05-23T05:59:33.857Z,75.90
2023-05-23T06:02:04.321Z,76.60
2023-05-23T06:04:34.670Z,76.00
2023-05-23T06:07:05.089Z,76.70
2023-05-23T06:09:35.466Z,77.10
2023-05-23T06:12:05.892Z,76.70
2023-05-23T06:14:36.276Z,77.00
2023-05-23T06:17:07.263Z,77.30
2023-05-23T06:19:37.817Z,77.40
2023-05-23T06:22:08.441Z,77.70
2023-05-23T06:24:38.791Z,78.00
2023-05-23T06:27:09.199Z,78.40
2023-05-23T06:29:39.602Z,78.70
2023-05-23T06:32:10.318Z,79.30
2023-05-23T06:34:40.925Z,79.60
2023-05-23T06:37:12.306Z,80.10
2023-05-23T06:39:42.753Z,80.20
2023-05-23T06:42:14.079Z,79.60
2023-05-23T06:44:44.718Z,79.60
2023-05-23T06:47:15.218Z,79.30
2023-05-23T06:49:45.648Z,79.50
2023-05-23T06:52:16.359Z,80.50
2023-05-23T06:54:47.045Z,81.30
2023-05-23T06:57:17.954Z,81.50
2023-05-23T06:59:48.323Z,82.30
2023-05-23T07:02:18.635Z,82.60
2023-05-23T07:04:49.986Z,82.10
2023-05-23T07:07:20.406Z,81.40
2023-05-23T07:09:50.768Z,81.30
2023-05-23T07:12:21.126Z,82.00
2023-05-23T07:14:51.462Z,82.50
2023-05-23T07:17:22.328Z,82.80
2023-05-23T07:19:52.828Z,83.50
2023-05-23T07:22:24.299Z,84.20
2023-05-23T07:24:54.616Z,84.40
2023-05-23T07:27:25.636Z,83.90
2023-05-23T07:29:56.579Z,83.60
2023-05-23T07:32:28.251Z,83.50
2023-05-23T07:34:59.194Z,84.20
2023-05-23T07:37:29.928Z,83.70
2023-05-23T07:40:00.282Z,85.20
2023-05-23T07:42:30.565Z,85.80
2023-05-23T07:45:01.474Z,85.20
2023-05-23T07:47:31.900Z,84.40
2023-05-23T07:50:03.999Z,84.70
2023-05-23T07:52:34.946Z,85.20
2023-05-23T07:55:05.472Z,86.40
2023-05-23T07:57:36.224Z,85.90
2023-05-23T08:00:09.811Z,86.00
2023-05-23T08:02:40.293Z,86.20
2023-05-23T08:05:11.321Z,87.50
2023-05-23T08:07:42.828Z,87.70
2023-05-23T08:10:13.825Z,87.50
2023-05-23T08:12:45.493Z,88.00
2023-05-23T08:15:17.906Z,87.70
2023-05-23T08:17:48.627Z,88.10
2023-05-23T08:20:22.327Z,88.30
2023-05-23T08:23:04.057Z,88.70
2023-05-23T08:25:35.418Z,88.80
2023-05-23T08:28:06.152Z,88.90
2023-05-23T08:30:37.864Z,88.70
2023-05-23T08:33:09.294Z,89.00
2023-05-23T08:35:40.707Z,90.10
2023-05-23T08:38:12.602Z,89.70
2023-05-23T08:40:50.350Z,89.80
2023-05-23T08:43:23.965Z,90.20
2023-05-23T08:45:59.609Z,90.80
2023-05-23T08:48:31.757Z,90.60
2023-05-23T08:51:04.725Z,90.50
2023-05-23T08:53:39.122Z,90.50
2023-05-23T08:56:11.052Z,90.40
2023-05-23T08:58:43.971Z,90.60
2023-05-23T09:01:16.003Z,90.40
2023-05-23T09:03:49.347Z,90.50
2023-05-23T09:06:23.125Z,90.60
2023-05-23T09:08:54.233Z,90.80
2023-05-23T09:11:26.143Z,91.00
2023-05-23T09:13:57.791Z,91.00
2023-05-23T09:16:38.388Z,91.30
2023-05-23T09:19:16.647Z,91.20
2023-05-23T09:21:49.281Z,91.10
2023-05-23T09:24:19.701Z,91.20
2023-05-23T09:26:51.121Z,91.10
2023-05-23T09:29:24.991Z,91.40
2023-05-23T09:31:57.042Z,91.60
2023-05-23T09:34:28.450Z,91.20
2023-05-23T09:36:59.744Z,91.10
2023-05-23T09:39:31.402Z,91.10
2023-05-23T09:42:03.251Z,91.50
2023-05-23T09:44:33.532Z,91.30
2023-05-23T09:47:10.488Z,92.00
2023-05-23T09:49:43.135Z,91.40
2023-05-23T09:52:14.798Z,91.30
2023-05-23T09:54:49.707Z,91.20
2023-05-23T09:57:25.594Z,91.70
2023-05-23T09:59:57.107Z,91.30
2023-05-23T10:03:03.652Z,91.70
2023-05-23T10:05:36.486Z,92.00
2023-05-23T10:08:14.043Z,91.40
2023-05-23T10:11:10.118Z,92.40
2023-05-23T10:13:42.421Z,91.60
2023-05-23T10:16:25.534Z,91.90
2023-05-23T10:19:01.561Z,92.00
2023-05-23T10:21:53.051Z,91.50
2023-05-23T10:24:23.895Z,91.50
2023-05-23T10:26:56.713Z,91.40
2023-05-23T10:29:29.796Z,91.30
2023-05-23T10:32:03.155Z,90.80
2023-05-23T10:34:43.821Z,90.20
2023-05-23T10:37:48.009Z,91.10
2023-05-23T10:40:30.879Z,91.30
2023-05-23T10:43:36.003Z,91.40
2023-05-23T10:46:06.354Z,91.40
2023-05-23T10:48:43.291Z,91.90
2023-05-23T10:51:18.338Z,91.80
2023-05-23T10:53:49.738Z,91.40
2023-05-23T10:56:25.578Z,91.40
2023-05-23T10:58:57.844Z,91.60
2023-05-23T11:01:31.049Z,91.80
2023-05-23T11:04:07.426Z,91.70
2023-05-23T11:06:49.353Z,91.60
2023-05-23T11:09:23.707Z,91.40
2023-05-23T11:11:55.886Z,91.80
2023-05-23T11:14:37.475Z,91.80
2023-05-23T11:17:20.824Z,91.80
2023-05-23T11:20:08.176Z,91.60
2023-05-23T11:22:39.215Z,91.20
2023-05-23T11:25:14.460Z,91.30
2023-05-23T11:27:49.797Z,92.00
2023-05-23T11:30:21.582Z,91.80
2023-05-23T11:32:58.060Z,91.40
2023-05-23T11:35:30.111Z,91.40
2023-05-23T11:38:01.176Z,91.50
2023-05-23T11:40:44.845Z,91.40
2023-05-23T11:43:20.359Z,91.70
2023-05-23T11:45:51.224Z,91.60
2023-05-23T11:48:21.583Z,91.50
2023-05-23T11:50:54.229Z,91.40
2023-05-23T11:53:27.386Z,91.70
2023-05-23T11:56:01.778Z,92.60
2023-05-23T11:58:39.836Z,91.70
2023-05-23T12:01:13.030Z,91.60
2023-05-23T12:03:51.834Z,91.60
2023-05-23T12:06:23.535Z,91.70
2023-05-23T12:08:57.695Z,91.50
2023-05-23T12:11:28.635Z,91.40
2023-05-23T12:13:59.325Z,91.40
2023-05-23T12:16:35.343Z,92.50
2023-05-23T12:19:08.776Z,92.10
2023-05-23T12:21:49.783Z,92.00
2023-05-23T12:24:23.735Z,92.20
2023-05-23T12:27:00.193Z,91.70
2023-05-23T12:29:35.934Z,91.70
2023-05-23T12:32:12.286Z,92.70
2023-05-23T12:34:46.229Z,92.60
2023-05-23T12:37:20.096Z,92.30
2023-05-23T12:39:51.080Z,92.10
2023-05-23T12:42:21.864Z,92.30
2023-05-23T12:44:57.179Z,91.50
2023-05-23T12:47:28.164Z,92.20
2023-05-23T12:49:58.659Z,91.70
2023-05-23T12:52:29.838Z,91.80
2023-05-23T12:55:00.724Z,92.20
2023-05-23T12:57:31.481Z,91.90
2023-05-23T13:00:02.394Z,92.30
2023-05-23T13:02:33.472Z,92.00
2023-05-23T13:05:05.354Z,93.00
2023-05-23T13:07:36.446Z,91.80
2023-05-23T13:10:08.791Z,91.60
2023-05-23T13:12:40.729Z,91.50
2023-05-23T13:15:12.929Z,92.30
2023-05-23T13:17:49.544Z,92.10
2023-05-23T13:20:20.346Z,93.00
2023-05-23T13:22:52.871Z,92.40
2023-05-23T13:25:24.871Z,92.30
2023-05-23T13:27:56.690Z,92.50
2023-05-23T13:30:28.865Z,92.20
2023-05-23T13:33:00.904Z,92.20
2023-05-23T13:35:34.562Z,92.10
2023-05-23T13:38:06.567Z,91.40
2023-05-23T13:40:37.083Z,91.30
2023-05-23T13:43:10.010Z,91.60
2023-05-23T13:45:42.367Z,92.00
2023-05-23T13:48:12.898Z,91.20
2023-05-23T13:50:43.479Z,91.80
2023-05-23T13:53:18.812Z,91.20
2023-05-23T13:55:49.728Z,91.90
2023-05-23T13:58:20.075Z,91.50
2023-05-23T14:00:51.084Z,92.10
2023-05-23T14:03:21.875Z,91.80
2023-05-23T14:05:52.373Z,91.90
2023-05-23T14:08:31.732Z,91.60
2023-05-23T14:11:02.387Z,91.50
2023-05-23T14:13:33.377Z,91.50
2023-05-23T14:16:04.474Z,91.70
2023-05-23T14:18:36.072Z,91.40
2023-05-23T14:21:09.003Z,91.60
2023-05-23T14:23:39.368Z,91.40
2023-05-23T14:26:09.894Z,91.60
2023-05-23T14:28:41.360Z,92.60
2023-05-23T14:31:11.707Z,92.00
2023-05-23T14:33:42.031Z,92.00
2023-05-23T14:36:13.105Z,92.30
2023-05-23T14:38:47.508Z,91.80
2023-05-23T14:41:17.968Z,92.30
2023-05-23T14:43:48.358Z,91.60
2023-05-23T14:46:20.563Z,93.10
2023-05-23T14:48:50.983Z,92.00
2023-05-23T14:51:34.604Z,91.60
2023-05-23T14:54:11.717Z,92.40
2023-05-23T14:56:43.784Z,91.40
2023-05-23T14:59:15.229Z,91.60
2023-05-23T15:01:45.749Z,91.50
2023-05-23T15:04:16.506Z,92.40
2023-05-23T15:06:49.252Z,92.00
2023-05-23T15:09:22.477Z,91.60
2023-05-23T15:11:54.491Z,91.50
2023-05-23T15:14:31.074Z,91.50
2023-05-23T15:17:09.683Z,92.70
2023-05-23T15:19:43.234Z,92.40
2023-05-23T15:22:30.259Z,92.40
2023-05-23T15:25:06.364Z,91.70
2023-05-23T15:27:37.119Z,92.50
2023-05-23T15:30:09.811Z,92.10
2023-05-23T15:32:40.830Z,92.30
2023-05-23T15:35:13.068Z,91.60
2023-05-23T15:37:46.101Z,91.70
2023-05-23T15:40:18.073Z,91.50
2023-05-23T15:42:51.779Z,91.60
2023-05-23T15:45:22.734Z,91.70
2023-05-23T15:47:53.202Z,91.60
2023-05-23T15:50:24.132Z,91.70
2023-05-23T15:52:54.488Z,91.90
2023-05-23T15:55:24.833Z,91.30
2023-05-23T15:57:55.699Z,91.30
2023-05-23T16:00:26.136Z,91.30
2023-05-23T16:02:56.564Z,91.50
2023-05-23T16:05:27.926Z,92.10
2023-05-23T16:07:59.101Z,91.80
2023-05-23T16:10:29.875Z,91.90
2023-05-23T16:13:02.717Z,91.60
2023-05-23T16:15:33.524Z,91.60
2023-05-23T16:18:07.387Z,92.20
2023-05-23T16:20:38.402Z,92.10
2023-05-23T16:23:08.757Z,91.90
2023-05-23T16:25:40.210Z,92.00
2023-05-23T16:28:11.212Z,92.20
2023-05-23T16:30:41.813Z,92.30
2023-05-23T16:33:13.596Z,92.10
2023-05-23T16:35:44.581Z,91.90
2023-05-23T16:38:15.330Z,91.90
2023-05-23T16:40:47.608Z,91.70
2023-05-23T16:43:18.004Z,91.80
2023-05-23T16:45:48.620Z,91.60
2023-05-23T16:48:22.259Z,91.90
2023-05-23T16:50:53.076Z,92.80
2023-05-23T16:53:24.926Z,92.00
2023-05-23T16:55:55.796Z,92.60
2023-05-23T16:58:27.901Z,92.60
2023-05-23T17:00:58.709Z,93.30
2023-05-23T17:03:30.963Z,92.10
2023-05-23T17:06:01.493Z,92.10
2023-05-23T17:08:31.757Z,92.20
2023-05-23T17:11:02.187Z,92.00
2023-05-23T17:13:34.379Z,92.50
2023-05-23T17:16:04.990Z,91.90
2023-05-23T17:18:35.439Z,92.40
2023-05-23T17:21:06.561Z,91.70
2023-05-23T17:23:37.049Z,91.60
2023-05-23T17:26:07.419Z,92.60
2023-05-23T17:28:37.849Z,91.50
2023-05-23T17:31:08.373Z,91.50
2023-05-23T17:33:38.949Z,91.60
2023-05-23T17:36:09.446Z,91.80
2023-05-23T17:38:40.619Z,92.00
2023-05-23T17:41:11.510Z,92.50
2023-05-23T17:43:42.241Z,93.00
2023-05-23T17:46:12.969Z,93.00
2023-05-23T17:48:47.614Z,93.40
2023-05-23T17:51:18.802Z,93.70
2023-05-23T17:53:53.247Z,93.60
2023-05-23T17:56:25.434Z,92.60
2023-05-23T17:58:55.775Z,92.50
2023-05-23T18:01:28.208Z,92.90
2023-05-23T18:03:58.641Z,92.40
2023-05-23T18:06:30.726Z,93.10
2023-05-23T18:09:01.480Z,92.80
2023-05-23T18:11:33.635Z,91.90
2023-05-23T18:14:06.074Z,91.90
2023-05-23T18:16:36.922Z,92.20
2023-05-23T18:19:08.032Z,92.10
2023-05-23T18:21:39.148Z,92.00
2023-05-23T18:24:10.718Z,92.00
2023-05-23T18:26:44.128Z,93.20
2023-05-23T18:29:14.591Z,93.40
2023-05-23T18:31:45.000Z,92.90
2023-05-23T18:34:15.553Z,92.60
2023-05-23T18:36:46.009Z,93.70
2023-05-23T18:39:18.764Z,93.70
2023-05-23T18:41:53.159Z,93.60
2023-05-23T18:44:26.419Z,93.70
2023-05-23T18:46:57.147Z,93.30
2023-05-23T18:49:28.097Z,94.00
2023-05-23T18:51:58.446Z,93.60
2023-05-23T18:54:29.212Z,93.40
2023-05-23T18:57:00.046Z,94.60
2023-05-23T18:59:30.415Z,95.10
2023-05-23T19:02:01.877Z,94.30
2023-05-23T19:04:32.302Z,95.20
2023-05-23T19:07:03.366Z,95.70
2023-05-23T19:09:33.825Z,95.60
2023-05-23T19:12:04.356Z,95.30
2023-05-23T19:14:34.759Z,94.80
2023-05-23T19:17:08.436Z,94.80
2023-05-23T19:19:39.552Z,94.10
2023-05-23T19:22:10.138Z,94.30
2023-05-23T19:24:41.095Z,94.60
2023-05-23T19:27:11.879Z,94.60
2023-05-23T19:29:42.279Z,95.80
2023-05-23T19:32:13.136Z,94.60
2023-05-23T19:34:44.487Z,95.60
2023-05-23T19:37:15.197Z,95.30
2023-05-23T19:39:47.992Z,95.30
2023-05-23T19:42:18.791Z,95.20
2023-05-23T19:44:49.938Z,94.70
2023-05-23T19:47:20.677Z,95.60
2023-05-23T19:49:50.950Z,94.90
2023-05-23T19:52:21.245Z,95.70
2023-05-23T19:54:53.087Z,94.90
2023-05-23T19:57:25.406Z,95.00
2023-05-23T19:59:56.318Z,94.80
2023-05-23T20:02:28.345Z,94.60
2023-05-23T20:05:24.156Z,94.50
2023-05-23T20:08:03.735Z,94.70
2023-05-23T20:10:34.452Z,95.00
2023-05-23T20:13:05.275Z,95.20
2023-05-23T20:15:40.082Z,94.50
2023-05-23T20:18:11.642Z,94.70
2023-05-23T20:20:42.410Z,94.80
2023-05-23T20:23:13.954Z,95.30
2023-05-23T20:25:45.353Z,95.80
2023-05-23T20:28:16.112Z,95.60
2023-05-23T20:30:46.575Z,96.00
2023-05-23T20:33:16.913Z,96.40
2023-05-23T20:35:50.030Z,96.10
2023-05-23T20:38:33.052Z,95.50
2023-05-23T20:41:09.440Z,95.50
2023-05-23T20:43:39.909Z,96.30
2023-05-23T20:46:13.633Z,95.80
2023-05-23T20:48:44.278Z,95.60
2023-05-23T20:51:15.255Z,95.50
2023-05-23T20:53:45.790Z,96.30
2023-05-23T20:56:16.466Z,96.60
2023-05-23T20:58:47.528Z,96.20
2023-05-23T21:01:17.888Z,96.00
2023-05-23T21:03:48.588Z,96.70
2023-05-23T21:06:19.017Z,97.20
2023-05-23T21:08:49.348Z,97.20
2023-05-23T21:11:19.736Z,97.30
2023-05-23T21:13:50.156Z,97.00
2023-05-23T21:16:20.588Z,97.10
2023-05-23T21:18:50.945Z,97.00
2023-05-23T21:21:21.310Z,96.80
2023-05-23T21:23:51.840Z,96.60
2023-05-23T21:26:22.298Z,96.20
2023-05-23T21:28:53.132Z,96.20
2023-05-23T21:31:33.066Z,96.00
2023-05-23T21:34:23.200Z,96.00
2023-05-23T21:36:55.534Z,96.10
2023-05-23T21:39:28.829Z,96.00
2023-05-23T21:42:49.214Z,96.20
2023-05-23T21:45:26.537Z,96.10
2023-05-23T21:47:57.257Z,96.10
2023-05-23T21:50:27.680Z,96.00
2023-05-23T21:52:59.018Z,96.00
2023-05-23T21:55:29.758Z,96.30
2023-05-23T21:58:00.200Z,96.50
2023-05-23T22:00:31.289Z,96.10
2023-05-23T22:03:01.869Z,96.40
2023-05-23T22:05:32.722Z,97.20
2023-05-23T22:08:03.422Z,97.20
2023-05-23T22:10:33.865Z,96.80
2023-05-23T22:13:05.335Z,96.50
2023-05-23T22:15:37.052Z,95.70
2023-05-23T22:18:08.475Z,95.90
2023-05-23T22:20:42.466Z,96.00
2023-05-23T22:23:18.424Z,95.80
2023-05-23T22:25:49.784Z,95.90
2023-05-23T22:28:20.653Z,96.00
2023-05-23T22:30:51.022Z,96.00
2023-05-23T22:33:21.988Z,96.20
2023-05-23T22:35:52.499Z,96.80
2023-05-23T22:38:28.461Z,96.60
2023-05-23T22:40:58.756Z,96.30
2023-05-23T22:43:30.716Z,96.10
2023-05-23T22:46:01.796Z,96.00
2023-05-23T22:48:37.034Z,96.10
2023-05-23T22:51:09.982Z,96.40
2023-05-23T22:53:40.742Z,96.20
2023-05-23T22:56:11.117Z,97.10
2023-05-23T22:58:41.778Z,97.10
2023-05-23T23:01:12.422Z,96.70
2023-05-23T23:03:43.371Z,96.40
2023-05-23T23:06:14.411Z,96.50
2023-05-23T23:08:45.563Z,96.00
2023-05-23T23:11:15.891Z,96.00
2023-05-23T23:13:46.852Z,95.90
2023-05-23T23:16:20.862Z,95.80
2023-05-23T23:18:51.481Z,95.80
2023-05-23T23:21:21.758Z,95.80
2023-05-23T23:23:52.597Z,95.80
2023-05-23T23:26:23.805Z,95.80
2023-05-23T23:28:54.635Z,95.60
2023-05-23T23:31:24.981Z,95.40
2023-05-23T23:33:55.457Z,95.40
2023-05-23T23:36:25.823Z,95.90
2023-05-23T23:38:57.046Z,95.50
2023-05-23T23:41:28.563Z,94.90
2023-05-23T23:43:59.381Z,95.00
2023-05-23T23:46:29.799Z,94.80
2023-05-23T23:49:00.186Z,94.90
2023-05-23T23:51:30.511Z,94.70
2023-05-23T23:54:01.385Z,94.30
2023-05-23T23:56:31.754Z,94.20
2023-05-23T23:59:02.510Z,93.20
